Terminal Aerodrome Forecast
Issued by NWS Twin Cities, MN

Home | Current Version | Previous Version | Graphics & Text | Print | Product List | Glossary Off
Versions: 1 2 3 4 5 6 7 8 9 10 11 12

064
FTUS43 KMPX 280532
TAFEAU
TAF
KEAU 280532Z 2806/2906 16008KT P6SM VCSH SCT050 BKN110
      WS020/19035KT
     FM281100 16008KT P6SM -SHRA VCTS SCT050 BKN090CB WS020/19040KT
      TEMPO 2811/2813 3SM TSRA OVC025CB
     FM281400 17012KT 6SM -SHRA BR OVC025
     FM281800 18012KT 6SM -SHRA VCTS OVC020CB
     FM282300 23008KT 4SM -SHRA BR OVC030
     FM290100 24006KT P6SM BKN070=

USA.gov is the U.S. government's official web portal to all federal, state and local government web resources and services.